Nearby METAR Reports

 

KISP - Islip, New York, USA
Distance from station: SW 4mi, 6km
Updated: Sun, 09/27/2020 10:56 am EDT
Mostly cloudy
Mostly cloudy
 Wind from SSW
Wind: SSW 6 mph , 9 km/h
Temperature: 73°F , 23°C
Dew Point: 66°F , 19°C
Humidity: 78%
Barometer: 30.02 inHg , 1016.6 hPa
Clouds: Mostly cloudy
Visibility: 10 miles , 16 km
Cloud details: Mostly cloudy 1500 ft
Mostly cloudy 2300 ft
2020/09/27 14:56 KISP 271456Z 20005KT 10SM BKN015 BKN023 23/19 A3002 RMK AO2 SLP167 T02330194 50005
KHWV - Shirley, New York, USA
Distance from station: E 10mi, 16km
Updated: Sun, 09/27/2020 11:08 am EDT
Overcast
Overcast
 Wind from SSE
Wind: SSE 6 mph , 9 km/h
Temperature: 73°F , 23°C
Dew Point: 66°F , 19°C
Humidity: 78%
Barometer: 30.03 inHg , 1016.9 hPa
Clouds: Overcast
Visibility: 10 miles , 16 km
Cloud details: Overcast 1000 ft
2020/09/27 15:08 KHWV 271508Z AUTO 16005KT 10SM OVC010 23/19 A3003 RMK AO2 CIG 007V014 T02280194
 
KFRG - Farmingdale, New York, USA
Distance from station: WSW 20mi, 33km
Updated: Sun, 09/27/2020 10:53 am EDT
Mostly cloudy
Mostly cloudy
 Wind from SSE
Wind: SSE 9 mph , 15 km/h
Temperature: 75°F , 24°C
Dew Point: 64°F , 18°C
Humidity: 69%
Barometer: 30.02 inHg , 1016.6 hPa
Clouds: Mostly cloudy
Visibility: 10 miles , 16 km
Cloud details: Partly cloudy 1700 ft
Mostly cloudy 2200 ft
2020/09/27 14:53 KFRG 271453Z AUTO 16008KT 10SM SCT017 BKN022 24/18 A3002 RMK AO2 SLP166 T02390183 50004
KBDR - Bridgeport, Connecticut, USA
Distance from station: N 23mi, 37km
Updated: Sun, 09/27/2020 11:04 am EDT
Overcast
Overcast
 Wind from S
Wind: S 3 mph , 6 km/h
Temperature: 72°F , 22°C
Dew Point: 66°F , 19°C
Humidity: 83%
Barometer: 30.02 inHg , 1016.6 hPa
Clouds: Overcast
Visibility: 10 miles , 16 km
Cloud details: Partly cloudy 600 ft
Partly cloudy 1100 ft
Overcast 3000 ft
2020/09/27 15:04 KBDR 271504Z 17003KT 10SM SCT006 SCT011 OVC030 22/19 A3002 RMK AO2 T02170194
 
KFOK - Westhampton Beac, New York, USA
Distance from station: E 23mi, 37km
Updated: Sun, 09/27/2020 10:53 am EDT
Overcast
Overcast
 Wind from S
Wind: S 6 mph , 9 km/h
Temperature: 72°F , 22°C
Dew Point: 68°F , 20°C
Humidity: 88%
Barometer: 30.05 inHg , 1017.6 hPa
Clouds: Overcast
Visibility: 10 miles , 16 km
Cloud details: Overcast 500 ft
2020/09/27 14:53 KFOK 271453Z 19005KT 10SM OVC005 22/20 A3005 RMK AO2 SLP175 T02170200 51005
KHVN - New Haven/Tweed, Connecticut, USA
Distance from station: NNE 31mi, 50km
Updated: Sun, 09/27/2020 10:53 am EDT
Overcast
Overcast
 Wind from SSE
Wind: SSE 6 mph , 9 km/h
Temperature: 73°F , 23°C
Dew Point: 70°F , 21°C
Humidity: 89%
Barometer: 30.03 inHg , 1016.9 hPa
Clouds: Overcast
Visibility: 10 miles , 16 km
Cloud details: Mostly cloudy 700 ft
Overcast 3200 ft
2020/09/27 14:53 KHVN 271453Z 15005KT 10SM BKN007 OVC032 23/21 A3003 RMK AO2 CIG 006V011 SLP169 T02280206 50004
 
KHPN - White Plains, New York, USA
Distance from station: WNW 37mi, 60km
Updated: Sun, 09/27/2020 10:56 am EDT
Mostly cloudy
Mostly cloudy
 Wind from SSE
Wind: SSE 8 mph , 13 km/h
Temperature: 70°F , 21°C
Dew Point: 64°F , 18°C
Humidity: 83%
Barometer: 30.03 inHg , 1016.9 hPa
Clouds: Mostly cloudy
Visibility: 7 miles , 11 km
Cloud details: Mostly cloudy 900 ft
Mostly cloudy 1300 ft
2020/09/27 14:56 KHPN 271456Z 16007KT 7SM BKN009 BKN013 21/18 A3003 RMK AO2 SLP164 T02110183 50004
KJFK - Nyc/Jfk Arpt, New York, USA
Distance from station: WSW 40mi, 64km
Updated: Sun, 09/27/2020 10:51 am EDT
Mostly cloudy
Mostly cloudy
 Wind from S
Wind: S 6 mph , 9 km/h
Temperature: 73°F , 23°C
Dew Point: 64°F , 18°C
Humidity: 74%
Barometer: 30.03 inHg , 1016.9 hPa
Clouds: Mostly cloudy
Visibility: 10 miles , 16 km
Cloud details: Mostly cloudy 1400 ft
Mostly cloudy 2100 ft
Mostly cloudy 5000 ft
2020/09/27 14:51 KJFK 271451Z 18005KT 10SM BKN014 BKN021 BKN050 23/18 A3003 RMK AO2 SLP169 T02330183 50005
 
KDXR - Danbury, Connecticut, USA
Distance from station: NNW 42mi, 68km
Updated: Sun, 09/27/2020 10:53 am EDT
Overcast
Overcast
 Wind from SSE
Wind: SSE 6 mph , 9 km/h
Temperature: 72°F , 22°C
Dew Point: 64°F , 18°C
Humidity: 78%
Barometer: 30.04 inHg , 1017.3 hPa
Clouds: Overcast
Visibility: 10 miles , 16 km
Cloud details: Mostly cloudy 1500 ft
Overcast 3100 ft
2020/09/27 14:53 KDXR 271453Z 15005KT 10SM BKN015 OVC031 22/18 A3004 RMK AO2 SLP170 T02170183 50002
KHTO - East Hampton, New York, USA
Distance from station: E 43mi, 69km
Updated: Sun, 09/27/2020 10:55 am EDT
Overcast
Overcast
 Wind from SSE
Wind: SSE 5 mph , 7 km/h
Temperature: 70°F , 21°C
Dew Point: 68°F , 20°C
Humidity: 94%
Barometer: 30.03 inHg , 1016.9 hPa
Clouds: Overcast
Visibility: 10 miles , 16 km
Cloud details: Overcast 300 ft
2020/09/27 14:55 KHTO 271455Z AUTO 16004KT 10SM OVC003 21/20 A3003 RMK AO2 T02050200
 
KOXC - Oxford/Waterbury, Connecticut, USA
Distance from station: N 43mi, 70km
Updated: Sun, 09/27/2020 10:51 am EDT
Overcast
Overcast
 Wind from SSE
Wind: SSE 5 mph , 7 km/h
Temperature: 70°F , 21°C
Dew Point: 64°F , 18°C
Humidity: 83%
Barometer: 30.06 inHg , 1017.9 hPa
Clouds: Overcast
Visibility: 10 miles , 16 km
Cloud details: Mostly cloudy 900 ft
Overcast 2700 ft
2020/09/27 14:51 KOXC 271451Z 16004KT 10SM BKN009 OVC027 21/18 A3006 RMK AO2 CIG 007V011 SLP185 60000 T02060183 50005
KLGA - Nyc/La Guardia, New York, USA
Distance from station: W 44mi, 70km
Updated: Sun, 09/27/2020 10:51 am EDT
Mostly cloudy
Mostly cloudy
 Wind from NE
Wind: NE 6 mph , 9 km/h
Temperature: 73°F , 23°C
Dew Point: 64°F , 18°C
Humidity: 74%
Barometer: 30.01 inHg , 1016.3 hPa
Clouds: Mostly cloudy
Visibility: 10 miles , 16 km
Cloud details: Mostly cloudy 1700 ft
Mostly cloudy 2600 ft
Mostly cloudy 5000 ft
2020/09/27 14:51 KLGA 271451Z 05005KT 10SM BKN017 BKN026 BKN050 23/18 A3001 RMK AO2 SLP163 T02280183 50003
 
KSNC - Chester, Connecticut, USA
Distance from station: NE 47mi, 76km
Updated: Sun, 09/27/2020 5:15 am EDT
NOT Current
Freezing fog, Overcast
Freezing fog, Overcast
 Wind from calm
Wind: Calm
Barometer: 30.03 inHg , 1016.9 hPa
Summary: Freezing Fog
Clouds: Overcast
Visibility: 1/4 mile , 0.4 km
Cloud details: Overcast 100 ft
2020/09/27 09:15 KSNC 270915Z AUTO 00000KT 1/4SM FZFG OVC001 A3003 RMK AO2
KMMK - Meriden, Connecticut, USA
Distance from station: NNE 48mi, 77km
Updated: Sun, 09/27/2020 10:53 am EDT
Overcast
Overcast
 Wind from S
Wind: S 6 mph , 9 km/h
Temperature: 72°F , 22°C
Dew Point: 64°F , 18°C
Humidity: 78%
Barometer: 30.03 inHg , 1016.9 hPa
Clouds: Overcast
Visibility: 10 miles , 16 km
Cloud details: Partly cloudy 1400 ft
Overcast 2100 ft
2020/09/27 14:53 KMMK 271453Z AUTO 17005KT 10SM SCT014 OVC021 22/18 A3003 RMK AO2 SLP168 60000 T02170183 50004 TSNO
 
KNYC - Nyc/Central Park, New York, USA
Distance from station: W 48mi, 77km
Updated: Sun, 09/27/2020 11:12 am EDT
Overcast
Overcast
 Wind from calm
Wind: Calm
Temperature: 73°F , 23°C
Dew Point: 64°F , 18°C
Humidity: 74%
Barometer: 30.04 inHg , 1017.3 hPa
Clouds: Overcast
Visibility: 10 miles , 16 km
Cloud details: Partly cloudy 2100 ft
Overcast 2900 ft
2020/09/27 15:12 KNYC 271512Z AUTO 00000KT 10SM SCT021 OVC029 23/18 A3004 RMK AO2 T02330183 $